sensor_id;sensor_type;location;lat;lon;timestamp;temperature;humidity
21722;DHT22;11023;48.274;7.794;2022-08-19T00:02:06;20.10;99.90
21722;DHT22;11023;48.274;7.794;2022-08-19T00:04:34;20.10;99.90
21722;DHT22;11023;48.274;7.794;2022-08-19T00:07:04;20.10;99.90
21722;DHT22;11023;48.274;7.794;2022-08-19T00:09:31;20.10;99.90
21722;DHT22;11023;48.274;7.794;2022-08-19T00:11:58;20.00;99.90
21722;DHT22;11023;48.274;7.794;2022-08-19T00:14:25;20.00;99.90
21722;DHT22;11023;48.274;7.794;2022-08-19T00:16:51;20.00;99.90
21722;DHT22;11023;48.274;7.794;2022-08-19T00:19:20;20.00;99.90
21722;DHT22;11023;48.274;7.794;2022-08-19T00:21:46;20.00;99.90
21722;DHT22;11023;48.274;7.794;2022-08-19T00:24:13;20.00;99.90
21722;DHT22;11023;48.274;7.794;2022-08-19T00:26:40;20.00;99.90
21722;DHT22;11023;48.274;7.794;2022-08-19T00:29:09;20.00;99.90
21722;DHT22;11023;48.274;7.794;2022-08-19T00:31:35;20.00;99.90
21722;DHT22;11023;48.274;7.794;2022-08-19T00:34:01;20.10;99.90
21722;DHT22;11023;48.274;7.794;2022-08-19T00:36:28;20.10;99.90
21722;DHT22;11023;48.274;7.794;2022-08-19T00:38:54;20.10;99.90
21722;DHT22;11023;48.274;7.794;2022-08-19T00:41:21;20.00;99.90
21722;DHT22;11023;48.274;7.794;2022-08-19T00:44:04;20.00;99.90
21722;DHT22;11023;48.274;7.794;2022-08-19T00:46:31;20.00;99.90
21722;DHT22;11023;48.274;7.794;2022-08-19T00:48:58;20.00;99.90
21722;DHT22;11023;48.274;7.794;2022-08-19T00:51:26;20.00;99.90
21722;DHT22;11023;48.274;7.794;2022-08-19T00:53:54;20.00;99.90
21722;DHT22;11023;48.274;7.794;2022-08-19T00:56:20;20.00;99.90
21722;DHT22;11023;48.274;7.794;2022-08-19T00:58:46;20.00;99.90
21722;DHT22;11023;48.274;7.794;2022-08-19T01:01:12;20.10;99.90
21722;DHT22;11023;48.274;7.794;2022-08-19T01:03:39;20.10;99.90
21722;DHT22;11023;48.274;7.794;2022-08-19T01:06:05;20.10;99.90
21722;DHT22;11023;48.274;7.794;2022-08-19T01:08:31;20.10;99.90
21722;DHT22;11023;48.274;7.794;2022-08-19T01:10:58;20.10;99.90
21722;DHT22;11023;48.274;7.794;2022-08-19T01:13:27;20.10;99.90
21722;DHT22;11023;48.274;7.794;2022-08-19T01:16:05;20.00;99.90
21722;DHT22;11023;48.274;7.794;2022-08-19T01:18:35;20.00;99.90
21722;DHT22;11023;48.274;7.794;2022-08-19T01:21:05;20.00;99.90
21722;DHT22;11023;48.274;7.794;2022-08-19T01:23:33;20.00;99.90
21722;DHT22;11023;48.274;7.794;2022-08-19T01:26:21;20.00;99.90
21722;DHT22;11023;48.274;7.794;2022-08-19T01:28:49;20.00;99.90
21722;DHT22;11023;48.274;7.794;2022-08-19T01:31:18;20.00;99.90
21722;DHT22;11023;48.274;7.794;2022-08-19T01:33:44;19.90;99.90
21722;DHT22;11023;48.274;7.794;2022-08-19T01:36:19;19.90;99.90
21722;DHT22;11023;48.274;7.794;2022-08-19T01:38:47;19.90;99.90
21722;DHT22;11023;48.274;7.794;2022-08-19T01:41:14;19.90;99.90
21722;DHT22;11023;48.274;7.794;2022-08-19T01:43:41;19.90;99.90
21722;DHT22;11023;48.274;7.794;2022-08-19T01:46:07;19.90;99.90
21722;DHT22;11023;48.274;7.794;2022-08-19T01:48:42;19.90;99.90
21722;DHT22;11023;48.274;7.794;2022-08-19T01:51:10;19.80;99.90
21722;DHT22;11023;48.274;7.794;2022-08-19T01:53:36;19.80;99.90
21722;DHT22;11023;48.274;7.794;2022-08-19T01:56:03;19.80;99.90
21722;DHT22;11023;48.274;7.794;2022-08-19T01:58:33;19.80;99.90
21722;DHT22;11023;48.274;7.794;2022-08-19T02:01:02;19.70;99.90
21722;DHT22;11023;48.274;7.794;2022-08-19T02:03:28;19.70;99.90
21722;DHT22;11023;48.274;7.794;2022-08-19T02:05:59;19.70;99.90
21722;DHT22;11023;48.274;7.794;2022-08-19T02:08:29;19.70;99.90
21722;DHT22;11023;48.274;7.794;2022-08-19T02:10:55;19.70;99.90
21722;DHT22;11023;48.274;7.794;2022-08-19T02:13:21;19.70;99.90
21722;DHT22;11023;48.274;7.794;2022-08-19T02:15:47;19.70;99.90
21722;DHT22;11023;48.274;7.794;2022-08-19T02:18:13;19.70;99.90
21722;DHT22;11023;48.274;7.794;2022-08-19T02:20:40;19.70;99.90
21722;DHT22;11023;48.274;7.794;2022-08-19T02:25:36;19.60;99.90
21722;DHT22;11023;48.274;7.794;2022-08-19T02:28:02;19.60;99.90
21722;DHT22;11023;48.274;7.794;2022-08-19T02:30:28;19.60;99.90
21722;DHT22;11023;48.274;7.794;2022-08-19T02:32:54;19.60;99.90
21722;DHT22;11023;48.274;7.794;2022-08-19T02:35:20;19.60;99.90
21722;DHT22;11023;48.274;7.794;2022-08-19T02:37:46;19.60;99.90
21722;DHT22;11023;48.274;7.794;2022-08-19T02:40:32;19.60;99.90
21722;DHT22;11023;48.274;7.794;2022-08-19T02:43:04;19.60;99.90
21722;DHT22;11023;48.274;7.794;2022-08-19T02:45:33;19.60;99.90
21722;DHT22;11023;48.274;7.794;2022-08-19T02:47:59;19.60;99.90
21722;DHT22;11023;48.274;7.794;2022-08-19T02:50:25;19.60;99.90
21722;DHT22;11023;48.274;7.794;2022-08-19T02:52:51;19.60;99.90
21722;DHT22;11023;48.274;7.794;2022-08-19T02:55:16;19.60;99.90
21722;DHT22;11023;48.274;7.794;2022-08-19T02:57:42;19.60;99.90
21722;DHT22;11023;48.274;7.794;2022-08-19T03:00:09;19.60;99.90
21722;DHT22;11023;48.274;7.794;2022-08-19T03:02:38;19.60;99.90
21722;DHT22;11023;48.274;7.794;2022-08-19T03:05:04;19.60;99.90
21722;DHT22;11023;48.274;7.794;2022-08-19T03:07:30;19.60;99.90
21722;DHT22;11023;48.274;7.794;2022-08-19T03:09:56;19.50;99.90
21722;DHT22;11023;48.274;7.794;2022-08-19T03:12:22;19.50;99.90
21722;DHT22;11023;48.274;7.794;2022-08-19T03:14:47;19.50;99.90
21722;DHT22;11023;48.274;7.794;2022-08-19T03:17:13;19.50;99.90
21722;DHT22;11023;48.274;7.794;2022-08-19T03:19:39;19.40;99.90
21722;DHT22;11023;48.274;7.794;2022-08-19T03:22:05;19.40;99.90
21722;DHT22;11023;48.274;7.794;2022-08-19T03:24:31;19.50;99.90
21722;DHT22;11023;48.274;7.794;2022-08-19T03:26:58;19.40;99.90
21722;DHT22;11023;48.274;7.794;2022-08-19T03:29:28;19.40;99.90
21722;DHT22;11023;48.274;7.794;2022-08-19T03:31:56;19.40;99.90
21722;DHT22;11023;48.274;7.794;2022-08-19T03:34:25;19.40;99.90
21722;DHT22;11023;48.274;7.794;2022-08-19T03:36:55;19.30;99.90
21722;DHT22;11023;48.274;7.794;2022-08-19T03:39:22;19.30;99.90
21722;DHT22;11023;48.274;7.794;2022-08-19T03:41:51;19.30;99.90
21722;DHT22;11023;48.274;7.794;2022-08-19T03:44:20;19.30;99.90
21722;DHT22;11023;48.274;7.794;2022-08-19T03:46:55;19.40;99.90
21722;DHT22;11023;48.274;7.794;2022-08-19T03:49:24;19.40;99.90
21722;DHT22;11023;48.274;7.794;2022-08-19T03:51:50;19.40;99.90
21722;DHT22;11023;48.274;7.794;2022-08-19T03:54:18;19.40;99.90
21722;DHT22;11023;48.274;7.794;2022-08-19T03:56:46;19.30;99.90
21722;DHT22;11023;48.274;7.794;2022-08-19T03:59:15;19.40;99.90
21722;DHT22;11023;48.274;7.794;2022-08-19T04:01:42;19.40;99.90
21722;DHT22;11023;48.274;7.794;2022-08-19T04:04:08;19.40;99.90
21722;DHT22;11023;48.274;7.794;2022-08-19T04:06:36;19.40;99.90
21722;DHT22;11023;48.274;7.794;2022-08-19T04:09:05;19.40;99.90
21722;DHT22;11023;48.274;7.794;2022-08-19T04:11:35;19.40;99.90
21722;DHT22;11023;48.274;7.794;2022-08-19T04:14:01;19.40;99.90
21722;DHT22;11023;48.274;7.794;2022-08-19T04:16:28;19.40;99.90
21722;DHT22;11023;48.274;7.794;2022-08-19T04:18:59;19.40;99.90
21722;DHT22;11023;48.274;7.794;2022-08-19T04:21:26;19.30;99.90
21722;DHT22;11023;48.274;7.794;2022-08-19T04:23:54;19.30;99.90
21722;DHT22;11023;48.274;7.794;2022-08-19T04:26:27;19.30;99.90
21722;DHT22;11023;48.274;7.794;2022-08-19T04:28:53;19.30;99.90
21722;DHT22;11023;48.274;7.794;2022-08-19T04:31:22;19.30;99.90
21722;DHT22;11023;48.274;7.794;2022-08-19T04:33:52;19.30;99.90
21722;DHT22;11023;48.274;7.794;2022-08-19T04:36:23;19.30;99.90
21722;DHT22;11023;48.274;7.794;2022-08-19T04:38:53;19.30;99.90
21722;DHT22;11023;48.274;7.794;2022-08-19T04:41:20;19.30;99.90
21722;DHT22;11023;48.274;7.794;2022-08-19T04:44:04;19.30;99.90
21722;DHT22;11023;48.274;7.794;2022-08-19T04:46:31;19.30;99.90
21722;DHT22;11023;48.274;7.794;2022-08-19T04:48:58;19.30;99.90
21722;DHT22;11023;48.274;7.794;2022-08-19T04:51:24;19.30;99.90
21722;DHT22;11023;48.274;7.794;2022-08-19T04:53:50;19.40;99.90
21722;DHT22;11023;48.274;7.794;2022-08-19T04:56:17;19.40;99.90
21722;DHT22;11023;48.274;7.794;2022-08-19T04:58:47;19.30;99.90
21722;DHT22;11023;48.274;7.794;2022-08-19T05:01:17;19.40;99.90
21722;DHT22;11023;48.274;7.794;2022-08-19T05:03:43;19.30;99.90
21722;DHT22;11023;48.274;7.794;2022-08-19T05:06:12;19.30;99.90
21722;DHT22;11023;48.274;7.794;2022-08-19T05:08:40;19.30;99.90
21722;DHT22;11023;48.274;7.794;2022-08-19T05:11:14;19.40;99.90
21722;DHT22;11023;48.274;7.794;2022-08-19T05:13:41;19.40;99.90
21722;DHT22;11023;48.274;7.794;2022-08-19T05:16:10;19.40;99.90
21722;DHT22;11023;48.274;7.794;2022-08-19T05:18:36;19.40;99.90
21722;DHT22;11023;48.274;7.794;2022-08-19T05:21:21;19.40;99.90
21722;DHT22;11023;48.274;7.794;2022-08-19T05:24:06;19.50;99.90
21722;DHT22;11023;48.274;7.794;2022-08-19T05:26:39;19.50;99.90
21722;DHT22;11023;48.274;7.794;2022-08-19T05:29:05;19.50;99.90
21722;DHT22;11023;48.274;7.794;2022-08-19T05:31:31;19.60;99.90
21722;DHT22;11023;48.274;7.794;2022-08-19T05:33:57;19.60;99.90
21722;DHT22;11023;48.274;7.794;2022-08-19T05:36:25;19.60;99.90
21722;DHT22;11023;48.274;7.794;2022-08-19T05:38:51;19.70;99.90
21722;DHT22;11023;48.274;7.794;2022-08-19T05:41:18;19.70;99.90
21722;DHT22;11023;48.274;7.794;2022-08-19T05:43:44;19.70;99.90
21722;DHT22;11023;48.274;7.794;2022-08-19T05:46:19;19.70;99.90
21722;DHT22;11023;48.274;7.794;2022-08-19T05:48:45;19.70;99.90
21722;DHT22;11023;48.274;7.794;2022-08-19T05:51:11;19.70;99.90
21722;DHT22;11023;48.274;7.794;2022-08-19T05:53:37;19.70;99.90
21722;DHT22;11023;48.274;7.794;2022-08-19T05:56:08;19.70;99.90
21722;DHT22;11023;48.274;7.794;2022-08-19T05:58:36;19.80;99.90
21722;DHT22;11023;48.274;7.794;2022-08-19T06:01:03;19.80;99.90
21722;DHT22;11023;48.274;7.794;2022-08-19T06:03:32;19.80;99.90
21722;DHT22;11023;48.274;7.794;2022-08-19T06:05:59;19.80;99.90
21722;DHT22;11023;48.274;7.794;2022-08-19T06:08:26;19.80;99.90
21722;DHT22;11023;48.274;7.794;2022-08-19T06:10:52;19.80;99.90
21722;DHT22;11023;48.274;7.794;2022-08-19T06:13:18;19.90;99.90
21722;DHT22;11023;48.274;7.794;2022-08-19T06:15:45;19.90;99.90
21722;DHT22;11023;48.274;7.794;2022-08-19T06:18:12;19.90;99.90
21722;DHT22;11023;48.274;7.794;2022-08-19T06:20:39;19.90;99.90
21722;DHT22;11023;48.274;7.794;2022-08-19T06:23:04;19.90;99.90
21722;DHT22;11023;48.274;7.794;2022-08-19T06:25:30;19.90;99.90
21722;DHT22;11023;48.274;7.794;2022-08-19T06:27:56;19.90;99.90
21722;DHT22;11023;48.274;7.794;2022-08-19T06:30:22;19.90;99.90
21722;DHT22;11023;48.274;7.794;2022-08-19T06:32:47;19.90;99.90
21722;DHT22;11023;48.274;7.794;2022-08-19T06:35:13;19.90;99.90
21722;DHT22;11023;48.274;7.794;2022-08-19T06:37:40;20.00;99.90
21722;DHT22;11023;48.274;7.794;2022-08-19T06:40:07;19.90;99.90
21722;DHT22;11023;48.274;7.794;2022-08-19T06:42:34;19.90;99.90
21722;DHT22;11023;48.274;7.794;2022-08-19T06:45:01;20.00;99.90
21722;DHT22;11023;48.274;7.794;2022-08-19T06:47:29;20.00;99.90
21722;DHT22;11023;48.274;7.794;2022-08-19T06:49:57;20.00;99.90
21722;DHT22;11023;48.274;7.794;2022-08-19T06:52:27;20.00;99.90
21722;DHT22;11023;48.274;7.794;2022-08-19T06:54:53;20.00;99.90
21722;DHT22;11023;48.274;7.794;2022-08-19T06:57:21;20.00;99.90
21722;DHT22;11023;48.274;7.794;2022-08-19T06:59:47;20.10;99.90
21722;DHT22;11023;48.274;7.794;2022-08-19T07:02:13;20.10;99.90
21722;DHT22;11023;48.274;7.794;2022-08-19T07:04:38;20.10;99.90
21722;DHT22;11023;48.274;7.794;2022-08-19T07:07:07;20.20;99.90
21722;DHT22;11023;48.274;7.794;2022-08-19T07:09:35;20.20;99.90
21722;DHT22;11023;48.274;7.794;2022-08-19T07:12:04;20.20;99.90
21722;DHT22;11023;48.274;7.794;2022-08-19T07:14:30;20.30;99.90
21722;DHT22;11023;48.274;7.794;2022-08-19T07:16:56;20.20;99.90
21722;DHT22;11023;48.274;7.794;2022-08-19T07:19:24;20.40;99.90
21722;DHT22;11023;48.274;7.794;2022-08-19T07:21:51;20.40;99.90
21722;DHT22;11023;48.274;7.794;2022-08-19T07:24:22;20.40;99.90
21722;DHT22;11023;48.274;7.794;2022-08-19T07:26:50;20.40;99.90
21722;DHT22;11023;48.274;7.794;2022-08-19T07:29:17;20.50;99.90
21722;DHT22;11023;48.274;7.794;2022-08-19T07:31:43;20.50;99.90
21722;DHT22;11023;48.274;7.794;2022-08-19T07:34:11;20.50;99.90
21722;DHT22;11023;48.274;7.794;2022-08-19T07:36:40;20.50;99.90
21722;DHT22;11023;48.274;7.794;2022-08-19T07:39:29;20.60;99.90
21722;DHT22;11023;48.274;7.794;2022-08-19T07:41:56;20.60;99.90
21722;DHT22;11023;48.274;7.794;2022-08-19T07:44:22;20.70;99.90
21722;DHT22;11023;48.274;7.794;2022-08-19T07:46:51;20.80;99.90
21722;DHT22;11023;48.274;7.794;2022-08-19T07:49:17;20.90;99.90
21722;DHT22;11023;48.274;7.794;2022-08-19T07:51:51;21.00;99.90
21722;DHT22;11023;48.274;7.794;2022-08-19T07:54:19;21.00;99.90
21722;DHT22;11023;48.274;7.794;2022-08-19T07:56:45;21.10;99.90
21722;DHT22;11023;48.274;7.794;2022-08-19T07:59:11;21.20;99.90
21722;DHT22;11023;48.274;7.794;2022-08-19T08:01:37;21.30;99.90
21722;DHT22;11023;48.274;7.794;2022-08-19T08:04:06;21.40;99.90
21722;DHT22;11023;48.274;7.794;2022-08-19T08:06:51;21.50;99.90
21722;DHT22;11023;48.274;7.794;2022-08-19T08:09:39;21.50;99.90
21722;DHT22;11023;48.274;7.794;2022-08-19T08:12:06;21.50;99.90
21722;DHT22;11023;48.274;7.794;2022-08-19T08:14:40;21.70;99.90
21722;DHT22;11023;48.274;7.794;2022-08-19T08:17:07;21.70;99.90
21722;DHT22;11023;48.274;7.794;2022-08-19T08:19:33;21.70;99.90
21722;DHT22;11023;48.274;7.794;2022-08-19T08:22:01;21.80;99.90
21722;DHT22;11023;48.274;7.794;2022-08-19T08:26:56;22.00;99.90
21722;DHT22;11023;48.274;7.794;2022-08-19T08:29:23;22.10;99.90
21722;DHT22;11023;48.274;7.794;2022-08-19T08:31:48;22.00;99.90
21722;DHT22;11023;48.274;7.794;2022-08-19T08:34:14;22.10;99.90
21722;DHT22;11023;48.274;7.794;2022-08-19T08:36:43;22.10;99.90
21722;DHT22;11023;48.274;7.794;2022-08-19T08:39:12;22.00;99.90
21722;DHT22;11023;48.274;7.794;2022-08-19T08:41:57;22.10;99.90
21722;DHT22;11023;48.274;7.794;2022-08-19T08:44:31;22.10;99.90
21722;DHT22;11023;48.274;7.794;2022-08-19T08:47:09;22.20;99.90
21722;DHT22;11023;48.274;7.794;2022-08-19T08:52:13;22.20;99.90
21722;DHT22;11023;48.274;7.794;2022-08-19T08:54:44;22.10;99.90
21722;DHT22;11023;48.274;7.794;2022-08-19T08:57:14;22.10;99.90
21722;DHT22;11023;48.274;7.794;2022-08-19T08:59:41;22.20;99.90
21722;DHT22;11023;48.274;7.794;2022-08-19T09:02:08;22.30;99.90
21722;DHT22;11023;48.274;7.794;2022-08-19T09:04:36;22.40;99.90
21722;DHT22;11023;48.274;7.794;2022-08-19T09:07:12;22.50;99.90
21722;DHT22;11023;48.274;7.794;2022-08-19T09:09:43;22.50;99.90
21722;DHT22;11023;48.274;7.794;2022-08-19T09:12:23;22.50;99.90
21722;DHT22;11023;48.274;7.794;2022-08-19T09:15:01;22.60;99.90
21722;DHT22;11023;48.274;7.794;2022-08-19T09:17:29;22.60;99.90
21722;DHT22;11023;48.274;7.794;2022-08-19T09:20:14;22.70;99.90
21722;DHT22;11023;48.274;7.794;2022-08-19T09:22:42;22.70;99.90
21722;DHT22;11023;48.274;7.794;2022-08-19T09:25:13;22.70;99.90
21722;DHT22;11023;48.274;7.794;2022-08-19T09:27:40;22.70;99.90
21722;DHT22;11023;48.274;7.794;2022-08-19T09:30:07;22.70;99.90
21722;DHT22;11023;48.274;7.794;2022-08-19T09:32:34;22.70;99.90
21722;DHT22;11023;48.274;7.794;2022-08-19T09:34:59;22.70;99.90
21722;DHT22;11023;48.274;7.794;2022-08-19T09:37:26;22.80;99.90
21722;DHT22;11023;48.274;7.794;2022-08-19T09:39:55;22.80;99.90
21722;DHT22;11023;48.274;7.794;2022-08-19T09:42:20;22.90;99.90
21722;DHT22;11023;48.274;7.794;2022-08-19T09:44:46;22.80;99.90
21722;DHT22;11023;48.274;7.794;2022-08-19T09:47:13;22.90;99.90
21722;DHT22;11023;48.274;7.794;2022-08-19T09:49:39;23.00;99.90
21722;DHT22;11023;48.274;7.794;2022-08-19T09:52:09;23.00;99.90
21722;DHT22;11023;48.274;7.794;2022-08-19T09:54:35;23.10;99.90
21722;DHT22;11023;48.274;7.794;2022-08-19T09:57:01;23.20;99.90
21722;DHT22;11023;48.274;7.794;2022-08-19T09:59:28;23.40;99.90
21722;DHT22;11023;48.274;7.794;2022-08-19T10:01:54;23.50;99.90
21722;DHT22;11023;48.274;7.794;2022-08-19T10:04:20;23.70;99.90
21722;DHT22;11023;48.274;7.794;2022-08-19T10:06:47;23.90;99.90
21722;DHT22;11023;48.274;7.794;2022-08-19T10:09:16;24.10;99.90
21722;DHT22;11023;48.274;7.794;2022-08-19T10:11:44;24.20;99.90
21722;DHT22;11023;48.274;7.794;2022-08-19T10:14:15;24.30;99.90
21722;DHT22;11023;48.274;7.794;2022-08-19T10:16:42;24.40;99.90
21722;DHT22;11023;48.274;7.794;2022-08-19T10:19:08;24.40;99.90
21722;DHT22;11023;48.274;7.794;2022-08-19T10:21:35;24.40;99.90
21722;DHT22;11023;48.274;7.794;2022-08-19T10:24:04;24.30;99.90
21722;DHT22;11023;48.274;7.794;2022-08-19T10:26:33;24.30;99.90
21722;DHT22;11023;48.274;7.794;2022-08-19T10:29:00;24.30;99.90
21722;DHT22;11023;48.274;7.794;2022-08-19T10:31:30;24.30;99.90
21722;DHT22;11023;48.274;7.794;2022-08-19T10:33:57;24.40;99.90
21722;DHT22;11023;48.274;7.794;2022-08-19T10:36:26;24.40;99.90
21722;DHT22;11023;48.274;7.794;2022-08-19T10:38:55;24.50;99.90
21722;DHT22;11023;48.274;7.794;2022-08-19T10:41:25;24.40;99.90
21722;DHT22;11023;48.274;7.794;2022-08-19T10:43:53;24.40;99.90
21722;DHT22;11023;48.274;7.794;2022-08-19T10:46:21;24.40;99.90
21722;DHT22;11023;48.274;7.794;2022-08-19T10:48:47;24.50;99.90
21722;DHT22;11023;48.274;7.794;2022-08-19T10:51:13;24.40;99.90
21722;DHT22;11023;48.274;7.794;2022-08-19T10:53:58;24.30;99.90
21722;DHT22;11023;48.274;7.794;2022-08-19T10:56:26;24.30;99.90
21722;DHT22;11023;48.274;7.794;2022-08-19T10:59:11;24.30;99.90
21722;DHT22;11023;48.274;7.794;2022-08-19T11:01:39;24.50;99.90
21722;DHT22;11023;48.274;7.794;2022-08-19T11:04:05;24.50;99.90
21722;DHT22;11023;48.274;7.794;2022-08-19T11:06:34;24.50;99.90
21722;DHT22;11023;48.274;7.794;2022-08-19T11:08:59;24.50;99.90
21722;DHT22;11023;48.274;7.794;2022-08-19T11:11:25;24.40;99.90
21722;DHT22;11023;48.274;7.794;2022-08-19T11:13:51;24.50;99.90
21722;DHT22;11023;48.274;7.794;2022-08-19T11:16:25;24.40;99.90
21722;DHT22;11023;48.274;7.794;2022-08-19T11:18:54;24.60;99.90
21722;DHT22;11023;48.274;7.794;2022-08-19T11:21:35;24.60;99.90
21722;DHT22;11023;48.274;7.794;2022-08-19T11:24:05;24.70;99.90
21722;DHT22;11023;48.274;7.794;2022-08-19T11:26:32;24.80;99.90
21722;DHT22;11023;48.274;7.794;2022-08-19T11:28:59;24.80;99.90
21722;DHT22;11023;48.274;7.794;2022-08-19T11:31:33;24.80;99.90
21722;DHT22;11023;48.274;7.794;2022-08-19T11:34:00;24.90;99.90
21722;DHT22;11023;48.274;7.794;2022-08-19T11:36:27;24.80;99.90
21722;DHT22;11023;48.274;7.794;2022-08-19T11:38:54;24.80;99.90
21722;DHT22;11023;48.274;7.794;2022-08-19T11:41:21;24.90;99.90
21722;DHT22;11023;48.274;7.794;2022-08-19T11:43:49;24.90;99.90
21722;DHT22;11023;48.274;7.794;2022-08-19T11:46:16;24.90;99.90
21722;DHT22;11023;48.274;7.794;2022-08-19T11:48:43;25.10;99.90
21722;DHT22;11023;48.274;7.794;2022-08-19T11:51:15;25.00;99.90
21722;DHT22;11023;48.274;7.794;2022-08-19T11:53:41;25.10;99.90
21722;DHT22;11023;48.274;7.794;2022-08-19T11:56:08;25.00;99.90
21722;DHT22;11023;48.274;7.794;2022-08-19T11:58:34;25.10;99.90
21722;DHT22;11023;48.274;7.794;2022-08-19T12:01:05;25.10;99.90
21722;DHT22;11023;48.274;7.794;2022-08-19T12:03:32;25.20;99.90
21722;DHT22;11023;48.274;7.794;2022-08-19T12:05:57;25.30;99.90
21722;DHT22;11023;48.274;7.794;2022-08-19T12:08:23;25.60;99.90
21722;DHT22;11023;48.274;7.794;2022-08-19T12:10:49;25.90;99.90
21722;DHT22;11023;48.274;7.794;2022-08-19T12:13:15;26.10;99.90
21722;DHT22;11023;48.274;7.794;2022-08-19T12:15:46;26.30;99.90
21722;DHT22;11023;48.274;7.794;2022-08-19T12:18:13;26.50;99.90
21722;DHT22;11023;48.274;7.794;2022-08-19T12:20:40;26.60;99.90
21722;DHT22;11023;48.274;7.794;2022-08-19T12:23:08;26.90;99.90
21722;DHT22;11023;48.274;7.794;2022-08-19T12:25:36;27.20;99.90
21722;DHT22;11023;48.274;7.794;2022-08-19T12:28:03;27.50;99.90
21722;DHT22;11023;48.274;7.794;2022-08-19T12:30:29;27.70;99.90
21722;DHT22;11023;48.274;7.794;2022-08-19T12:32:54;27.70;99.90
21722;DHT22;11023;48.274;7.794;2022-08-19T12:35:20;27.60;99.90
21722;DHT22;11023;48.274;7.794;2022-08-19T12:37:47;27.50;99.90
21722;DHT22;11023;48.274;7.794;2022-08-19T12:40:15;27.20;99.90
21722;DHT22;11023;48.274;7.794;2022-08-19T12:42:41;27.30;99.90
21722;DHT22;11023;48.274;7.794;2022-08-19T12:45:12;27.40;99.90
21722;DHT22;11023;48.274;7.794;2022-08-19T12:47:38;27.40;99.90
21722;DHT22;11023;48.274;7.794;2022-08-19T12:50:04;27.40;99.90
21722;DHT22;11023;48.274;7.794;2022-08-19T12:52:31;27.70;99.90
21722;DHT22;11023;48.274;7.794;2022-08-19T12:54:57;27.80;99.90
21722;DHT22;11023;48.274;7.794;2022-08-19T12:57:26;27.90;99.90
21722;DHT22;11023;48.274;7.794;2022-08-19T12:59:52;27.90;99.90
21722;DHT22;11023;48.274;7.794;2022-08-19T13:02:21;28.10;99.90
21722;DHT22;11023;48.274;7.794;2022-08-19T13:04:48;28.40;99.90
21722;DHT22;11023;48.274;7.794;2022-08-19T13:07:13;28.60;99.90
21722;DHT22;11023;48.274;7.794;2022-08-19T13:09:39;28.90;99.90
21722;DHT22;11023;48.274;7.794;2022-08-19T13:12:08;29.10;99.90
21722;DHT22;11023;48.274;7.794;2022-08-19T13:14:38;28.90;99.90
21722;DHT22;11023;48.274;7.794;2022-08-19T13:17:06;28.70;99.90
21722;DHT22;11023;48.274;7.794;2022-08-19T13:19:31;28.70;99.90
21722;DHT22;11023;48.274;7.794;2022-08-19T13:21:57;28.80;99.90
21722;DHT22;11023;48.274;7.794;2022-08-19T13:24:24;28.80;99.90
21722;DHT22;11023;48.274;7.794;2022-08-19T13:26:50;28.90;99.90
21722;DHT22;11023;48.274;7.794;2022-08-19T13:29:15;28.80;99.90
21722;DHT22;11023;48.274;7.794;2022-08-19T13:32:00;28.70;99.90
21722;DHT22;11023;48.274;7.794;2022-08-19T13:34:44;28.60;99.90
21722;DHT22;11023;48.274;7.794;2022-08-19T13:37:12;28.50;99.90
21722;DHT22;11023;48.274;7.794;2022-08-19T13:39:38;28.80;99.90
21722;DHT22;11023;48.274;7.794;2022-08-19T13:42:04;29.00;99.90
21722;DHT22;11023;48.274;7.794;2022-08-19T13:44:30;29.40;99.90
21722;DHT22;11023;48.274;7.794;2022-08-19T13:47:04;29.80;99.90
21722;DHT22;11023;48.274;7.794;2022-08-19T13:49:35;30.20;99.90
21722;DHT22;11023;48.274;7.794;2022-08-19T13:52:02;30.40;99.90
21722;DHT22;11023;48.274;7.794;2022-08-19T13:54:28;30.40;99.90
21722;DHT22;11023;48.274;7.794;2022-08-19T13:56:53;30.50;99.90
21722;DHT22;11023;48.274;7.794;2022-08-19T13:59:19;30.60;99.90
21722;DHT22;11023;48.274;7.794;2022-08-19T14:01:45;30.70;99.90
21722;DHT22;11023;48.274;7.794;2022-08-19T14:04:10;30.90;99.90
21722;DHT22;11023;48.274;7.794;2022-08-19T14:06:36;31.10;99.90
21722;DHT22;11023;48.274;7.794;2022-08-19T14:09:02;31.10;99.90
21722;DHT22;11023;48.274;7.794;2022-08-19T14:11:28;31.10;99.90
21722;DHT22;11023;48.274;7.794;2022-08-19T14:13:54;30.90;99.90
21722;DHT22;11023;48.274;7.794;2022-08-19T14:16:20;30.80;99.90
21722;DHT22;11023;48.274;7.794;2022-08-19T14:18:47;30.70;99.90
21722;DHT22;11023;48.274;7.794;2022-08-19T14:21:17;30.40;99.90
21722;DHT22;11023;48.274;7.794;2022-08-19T14:23:45;30.10;99.90
21722;DHT22;11023;48.274;7.794;2022-08-19T14:26:14;30.10;99.90
21722;DHT22;11023;48.274;7.794;2022-08-19T14:28:41;30.20;99.90
21722;DHT22;11023;48.274;7.794;2022-08-19T14:31:08;30.50;99.90
21722;DHT22;11023;48.274;7.794;2022-08-19T14:33:34;30.70;99.90
21722;DHT22;11023;48.274;7.794;2022-08-19T14:36:00;30.70;99.90
21722;DHT22;11023;48.274;7.794;2022-08-19T14:38:26;30.60;99.90
21722;DHT22;11023;48.274;7.794;2022-08-19T14:40:52;30.40;99.90
21722;DHT22;11023;48.274;7.794;2022-08-19T14:43:18;30.10;99.90
21722;DHT22;11023;48.274;7.794;2022-08-19T14:45:44;30.00;99.90
21722;DHT22;11023;48.274;7.794;2022-08-19T14:48:09;29.80;99.90
21722;DHT22;11023;48.274;7.794;2022-08-19T14:50:35;29.50;99.90
21722;DHT22;11023;48.274;7.794;2022-08-19T14:53:07;29.30;99.90
21722;DHT22;11023;48.274;7.794;2022-08-19T14:55:34;29.00;99.90
21722;DHT22;11023;48.274;7.794;2022-08-19T14:58:00;28.90;99.90
21722;DHT22;11023;48.274;7.794;2022-08-19T15:00:26;28.70;99.90
21722;DHT22;11023;48.274;7.794;2022-08-19T15:02:52;28.60;99.90
21722;DHT22;11023;48.274;7.794;2022-08-19T15:05:20;28.50;99.90
21722;DHT22;11023;48.274;7.794;2022-08-19T15:07:46;28.60;99.90
21722;DHT22;11023;48.274;7.794;2022-08-19T15:10:13;28.60;99.90
21722;DHT22;11023;48.274;7.794;2022-08-19T15:12:39;28.60;99.90
21722;DHT22;11023;48.274;7.794;2022-08-19T15:15:07;28.60;99.90
21722;DHT22;11023;48.274;7.794;2022-08-19T15:17:32;28.60;99.90
21722;DHT22;11023;48.274;7.794;2022-08-19T15:19:58;28.70;99.90
21722;DHT22;11023;48.274;7.794;2022-08-19T15:22:24;28.80;99.90
21722;DHT22;11023;48.274;7.794;2022-08-19T15:24:49;28.80;99.90
21722;DHT22;11023;48.274;7.794;2022-08-19T15:27:15;28.90;99.90
21722;DHT22;11023;48.274;7.794;2022-08-19T15:29:41;28.90;99.90
21722;DHT22;11023;48.274;7.794;2022-08-19T15:32:07;29.00;99.90
21722;DHT22;11023;48.274;7.794;2022-08-19T15:34:34;29.20;99.90
21722;DHT22;11023;48.274;7.794;2022-08-19T15:37:01;29.00;99.90
21722;DHT22;11023;48.274;7.794;2022-08-19T15:39:29;29.00;99.90
21722;DHT22;11023;48.274;7.794;2022-08-19T15:41:55;29.00;99.90
21722;DHT22;11023;48.274;7.794;2022-08-19T15:44:21;29.10;99.90